createdAt,value
2022-11-05T00:02:30.141Z,15.35
2022-11-05T00:07:08.248Z,15.56
2022-11-05T00:11:41.581Z,15.28
2022-11-05T00:16:08.882Z,15.57
2022-11-05T00:20:27.338Z,15.05
2022-11-05T00:24:49.652Z,14.55
2022-11-05T00:28:54.492Z,14.59
2022-11-05T00:33:08.534Z,14.38
2022-11-05T00:37:19.843Z,13.99
2022-11-05T00:41:37.539Z,13.79
2022-11-05T00:46:35.983Z,13.61
2022-11-05T00:50:53.097Z,13.40
2022-11-05T00:54:59.997Z,13.38
2022-11-05T00:59:11.595Z,13.09
2022-11-05T01:03:32.822Z,12.90
2022-11-05T01:07:47.489Z,12.45
2022-11-05T01:11:55.411Z,12.49
2022-11-05T01:16:25.127Z,12.45
2022-11-05T01:20:32.817Z,12.61
2022-11-05T01:24:44.639Z,12.99
2022-11-05T01:29:04.839Z,13.50
2022-11-05T01:33:10.078Z,13.35
2022-11-05T01:37:13.600Z,13.40
2022-11-05T01:41:18.286Z,13.57
2022-11-05T01:45:30.173Z,13.50
2022-11-05T01:49:39.731Z,13.44
2022-11-05T01:53:51.657Z,13.84
2022-11-05T02:02:43.100Z,14.45
2022-11-05T02:07:15.406Z,14.39
2022-11-05T02:11:29.868Z,14.09
2022-11-05T02:16:04.712Z,13.88
2022-11-05T02:20:34.435Z,13.63
2022-11-05T02:25:22.323Z,13.64
2022-11-05T02:30:14.677Z,13.57
2022-11-05T02:34:42.449Z,13.55
2022-11-05T02:39:03.439Z,13.78
2022-11-05T02:43:19.782Z,13.66
2022-11-05T02:47:49.812Z,13.83
2022-11-05T02:52:05.466Z,13.88
2022-11-05T02:56:24.858Z,13.92
2022-11-05T03:01:01.063Z,14.04
2022-11-05T03:05:09.588Z,14.26
2022-11-05T03:09:51.195Z,14.28
2022-11-05T03:14:07.909Z,14.21
2022-11-05T03:18:27.460Z,14.49
2022-11-05T03:22:53.037Z,14.73
2022-11-05T03:28:04.430Z,14.73
2022-11-05T03:32:55.597Z,14.86
2022-11-05T03:37:29.059Z,14.89
2022-11-05T03:41:56.222Z,14.96
2022-11-05T03:46:18.675Z,15.21
2022-11-05T03:50:41.845Z,15.24
2022-11-05T03:55:00.819Z,15.68
2022-11-05T03:59:19.685Z,15.36
2022-11-05T04:03:28.517Z,14.84
2022-11-05T04:07:57.941Z,14.69
2022-11-05T04:12:40.007Z,14.21
2022-11-05T04:17:15.363Z,13.73
2022-11-05T04:21:54.444Z,13.21
2022-11-05T04:26:16.284Z,12.83
2022-11-05T04:30:36.116Z,12.77
2022-11-05T04:35:01.704Z,13.11
2022-11-05T04:39:40.033Z,13.32
2022-11-05T04:44:02.220Z,13.23
2022-11-05T04:48:27.729Z,12.88
2022-11-05T04:52:54.367Z,12.69
2022-11-05T04:57:11.268Z,12.84
2022-11-05T05:01:32.141Z,12.76
2022-11-05T05:06:02.410Z,12.68
2022-11-05T05:10:25.931Z,13.05
2022-11-05T05:14:38.833Z,13.78
2022-11-05T05:19:00.662Z,14.21
2022-11-05T05:23:29.392Z,14.12
2022-11-05T05:28:02.681Z,14.21
2022-11-05T05:32:56.498Z,13.92
2022-11-05T05:37:08.725Z,13.66
2022-11-05T05:41:48.476Z,14.09
2022-11-05T05:51:55.698Z,14.21
2022-11-05T05:57:14.954Z,14.45
2022-11-05T06:02:16.553Z,14.24
2022-11-05T06:07:02.640Z,13.79
2022-11-05T06:11:37.724Z,13.51
2022-11-05T06:15:58.238Z,13.44
2022-11-05T06:20:13.651Z,13.57
2022-11-05T06:24:26.100Z,13.85
2022-11-05T06:28:38.296Z,13.84
2022-11-05T06:33:07.756Z,13.91
2022-11-05T06:37:17.282Z,13.92
2022-11-05T06:41:27.292Z,13.94
2022-11-05T06:45:55.187Z,14.00
2022-11-05T06:50:09.935Z,14.20
2022-11-05T06:54:27.160Z,14.28
2022-11-05T06:58:50.940Z,14.88
2022-11-05T07:09:18.728Z,15.19
2022-11-05T07:13:30.833Z,15.73
2022-11-05T07:17:35.470Z,15.67
2022-11-05T07:21:51.467Z,15.71
2022-11-05T07:25:51.846Z,15.76
2022-11-05T07:29:56.956Z,16.16
2022-11-05T07:34:06.402Z,16.26
2022-11-05T07:38:13.047Z,16.58
2022-11-05T07:42:25.571Z,16.71
2022-11-05T07:46:33.983Z,16.95
2022-11-05T07:55:24.104Z,17.02
2022-11-05T07:59:30.233Z,16.90
2022-11-05T08:03:44.449Z,16.84
2022-11-05T08:08:35.417Z,16.41
2022-11-05T08:13:22.776Z,16.12
2022-11-05T08:23:30.911Z,16.42
2022-11-05T08:27:49.742Z,16.44
2022-11-05T08:32:53.595Z,16.70
2022-11-05T08:37:23.944Z,16.42
2022-11-05T08:41:45.364Z,16.65
2022-11-05T08:46:02.808Z,16.51
2022-11-05T08:51:16.972Z,16.56
2022-11-05T08:55:44.474Z,16.89
2022-11-05T09:05:39.363Z,17.27
2022-11-05T09:10:12.857Z,17.56
2022-11-05T09:14:53.563Z,17.73
2022-11-05T09:19:31.386Z,17.74
2022-11-05T09:28:37.696Z,17.71
2022-11-05T09:33:10.225Z,17.68
2022-11-05T09:38:01.219Z,17.87
2022-11-05T09:42:32.828Z,18.08
2022-11-05T09:47:12.840Z,18.11
2022-11-05T09:51:37.327Z,18.33
2022-11-05T09:55:50.463Z,18.27
2022-11-05T10:00:03.309Z,18.03
2022-11-05T10:04:33.433Z,18.23
2022-11-05T10:09:16.054Z,18.31
2022-11-05T10:13:28.062Z,18.40
2022-11-05T10:17:55.659Z,18.27
2022-11-05T10:22:16.661Z,18.70
2022-11-05T10:26:33.641Z,18.63
2022-11-05T10:30:46.788Z,18.78
2022-11-05T10:34:58.685Z,18.96
2022-11-05T10:39:18.786Z,18.96
2022-11-05T10:43:33.189Z,19.20
2022-11-05T10:48:01.168Z,19.17
2022-11-05T10:52:28.994Z,19.41
2022-11-05T10:56:38.396Z,19.53
2022-11-05T11:00:49.221Z,19.64
2022-11-05T11:04:58.927Z,20.02
2022-11-05T11:09:07.266Z,19.94
2022-11-05T11:18:26.053Z,20.16
2022-11-05T11:22:42.265Z,20.41
2022-11-05T11:26:50.350Z,20.22
2022-11-05T11:30:58.702Z,20.35
2022-11-05T11:35:04.156Z,20.54
2022-11-05T11:39:36.544Z,20.75
2022-11-05T11:44:10.157Z,21.02
2022-11-05T11:48:58.511Z,20.89
2022-11-05T11:53:50.123Z,20.88
2022-11-05T11:57:58.975Z,21.04
2022-11-05T12:02:58.851Z,21.21
2022-11-05T12:07:46.969Z,20.90
2022-11-05T12:12:02.641Z,21.08
2022-11-05T12:16:23.040Z,21.22
2022-11-05T12:21:09.765Z,21.27
2022-11-05T12:25:30.755Z,21.18
2022-11-05T12:30:09.857Z,21.31
2022-11-05T12:34:47.768Z,21.41
2022-11-05T12:39:46.477Z,21.35
2022-11-05T12:44:28.318Z,21.43
2022-11-05T12:49:16.124Z,20.95
2022-11-05T12:53:54.142Z,21.27
2022-11-05T12:58:18.885Z,21.46
2022-11-05T13:02:29.443Z,21.56
2022-11-05T13:06:53.410Z,21.16
2022-11-05T13:10:58.088Z,21.43
2022-11-05T13:15:05.353Z,21.46
2022-11-05T13:19:18.898Z,21.20
2022-11-05T13:23:36.653Z,21.27
2022-11-05T13:27:55.148Z,21.39
2022-11-05T13:32:08.115Z,21.41
2022-11-05T13:36:48.194Z,21.29
2022-11-05T13:41:42.185Z,21.15
2022-11-05T13:46:49.590Z,21.34
2022-11-05T13:52:24.029Z,21.17
2022-11-05T13:57:25.700Z,21.29
2022-11-05T14:02:16.691Z,21.07
2022-11-05T14:25:07.555Z,21.12
2022-11-05T14:41:55.905Z,20.85
2022-11-05T15:34:31.030Z,19.89
2022-11-05T15:39:08.518Z,19.44
2022-11-05T15:43:35.539Z,19.67
2022-11-05T15:48:35.206Z,19.64
2022-11-05T15:53:44.070Z,19.54
2022-11-05T15:58:05.638Z,19.52
2022-11-05T16:02:36.107Z,19.42
2022-11-05T16:07:26.200Z,19.30
2022-11-05T16:11:52.327Z,19.19
2022-11-05T16:16:13.752Z,19.12
2022-11-05T16:20:42.956Z,19.04
2022-11-05T16:25:04.984Z,18.85
2022-11-05T16:29:23.178Z,18.77
2022-11-05T16:33:53.206Z,18.65
2022-11-05T16:38:11.309Z,18.47
2022-11-05T16:42:44.831Z,18.35
2022-11-05T16:47:06.698Z,18.13
2022-11-05T16:51:17.065Z,18.05
2022-11-05T16:55:50.116Z,17.95
2022-11-05T17:00:19.259Z,17.98
2022-11-05T17:04:39.290Z,17.84
2022-11-05T17:08:40.605Z,17.75
2022-11-05T17:12:46.817Z,17.64
2022-11-05T17:17:00.832Z,17.11
2022-11-05T17:21:23.000Z,17.55
2022-11-05T17:26:01.447Z,17.51
2022-11-05T17:30:31.203Z,17.41
2022-11-05T17:34:41.092Z,17.35
2022-11-05T17:39:03.158Z,17.22
2022-11-05T17:43:52.797Z,17.37
2022-11-05T17:48:33.555Z,17.34
2022-11-05T17:52:53.405Z,17.09
2022-11-05T17:57:20.538Z,17.05
2022-11-05T18:01:31.300Z,17.03
2022-11-05T18:05:44.137Z,16.93
2022-11-05T18:10:02.854Z,16.78
2022-11-05T18:14:08.026Z,16.26
2022-11-05T18:18:35.332Z,16.44
2022-11-05T18:22:46.481Z,16.47
2022-11-05T18:26:59.757Z,16.32
2022-11-05T18:31:21.613Z,16.31
2022-11-05T18:35:30.127Z,16.44
2022-11-05T18:39:34.146Z,16.51
2022-11-05T18:43:41.381Z,16.40
2022-11-05T18:48:10.660Z,16.33
2022-11-05T18:52:38.151Z,16.22
2022-11-05T18:56:59.933Z,16.01
2022-11-05T19:01:29.022Z,15.60
2022-11-05T19:05:56.071Z,15.92
2022-11-05T19:10:13.195Z,15.74
2022-11-05T19:14:38.080Z,15.79
2022-11-05T19:18:55.027Z,15.78
2022-11-05T19:23:10.824Z,15.68
2022-11-05T19:27:32.126Z,15.43
2022-11-05T19:32:21.053Z,15.46
2022-11-05T19:36:46.350Z,15.38
2022-11-05T19:41:30.197Z,15.23
2022-11-05T19:45:55.721Z,15.05
2022-11-05T19:55:06.757Z,14.95
2022-11-05T19:59:54.658Z,14.65
2022-11-05T20:04:24.211Z,14.57
2022-11-05T20:08:47.853Z,14.48
2022-11-05T20:13:18.588Z,14.30
2022-11-05T20:17:45.600Z,14.34
2022-11-05T20:21:50.997Z,14.24
2022-11-05T20:25:56.815Z,14.01
2022-11-05T20:30:02.372Z,14.09
2022-11-05T20:34:09.834Z,14.07
2022-11-05T20:38:13.192Z,14.03
2022-11-05T20:42:18.421Z,14.07
2022-11-05T20:46:47.849Z,14.03
2022-11-05T20:50:56.939Z,13.88
2022-11-05T20:54:58.439Z,13.86
2022-11-05T20:59:23.666Z,13.63
2022-11-05T21:04:02.500Z,13.57
2022-11-05T21:08:37.238Z,13.39
2022-11-05T21:13:02.560Z,13.47
2022-11-05T21:17:18.050Z,13.52
2022-11-05T21:21:26.790Z,13.50
2022-11-05T21:25:36.341Z,13.26
2022-11-05T21:29:41.177Z,13.09
2022-11-05T21:34:00.364Z,13.04
2022-11-05T21:38:29.472Z,13.02
2022-11-05T21:42:45.675Z,12.86
2022-11-05T21:46:54.347Z,12.73
2022-11-05T21:51:33.083Z,12.76
2022-11-05T21:56:04.763Z,12.68
2022-11-05T22:00:32.168Z,12.59
2022-11-05T22:04:54.006Z,12.52
2022-11-05T22:09:20.989Z,12.42
2022-11-05T22:13:32.626Z,12.56
2022-11-05T22:18:17.463Z,12.45
2022-11-05T22:22:36.683Z,12.40
2022-11-05T22:27:07.582Z,12.43
2022-11-05T22:31:41.201Z,12.31
2022-11-05T22:36:03.092Z,12.26
2022-11-05T22:40:12.996Z,12.17
2022-11-05T22:44:14.002Z,12.07
2022-11-05T22:48:18.679Z,12.08
2022-11-05T22:52:22.596Z,11.67
2022-11-05T22:56:29.102Z,11.82
2022-11-05T23:00:39.241Z,11.67
2022-11-05T23:05:03.029Z,11.86
2022-11-05T23:09:23.527Z,11.76
2022-11-05T23:13:28.988Z,11.92
2022-11-05T23:17:51.850Z,11.60
2022-11-05T23:22:11.428Z,11.90
2022-11-05T23:26:31.730Z,11.86
2022-11-05T23:31:05.653Z,11.76
2022-11-05T23:35:30.053Z,11.64
2022-11-05T23:39:39.644Z,11.59
2022-11-05T23:43:58.677Z,11.29
2022-11-05T23:48:19.902Z,11.42
2022-11-05T23:52:35.807Z,10.96
2022-11-05T23:56:43.770Z,11.26
